Terminal Aerodrome Forecast
Issued by NWS

Home | Current Version | Previous Version | Graphics & Text | Print | Product List | Glossary On
Versions: 1 2 3 4 5 6 7 8 9 10 11 12 13
000
FTUS43 KGRB 172330
TAFMTW
TAF
KMTW 172330Z 1800/1824 18008KT P6SM SKC
     FM180200 23008KT P6SM SKC WS020/27040KT
     FM181200 28008KT 5SM BR FEW006 WS020/30035KT
     FM181500 28008KT P6SM SKC
     FM182000 28008KT P6SM SCT200=

USA.gov is the U.S. government's official web portal to all federal, state and local government web resources and services.